Da Nang International Airport
VVDN : now visible

Airfield :











YOU CAN JOIN US ON...

 
LOGIN :

Register | Disclaimer

   EN    FR    IT 

 









Legend :    VFR   Marginal VFR   IFR   Intensive IFR   Very Intensive IFR
Visi :
Ceiling :
>= 8 km
>= 3000ft
5 to 8 km
1000 to 3000 ft
1500m to 5 km
500 to 1000 ft
800 to 1500m
200 to 500 ft
< 800m
< 200 ft
Symbols :   Thunderstorms  Fog  Heavy snow  Heavy precipitations  Wind > 20 kt







- Airport Elevation : 33 ft
- IATA code : DAD


VVDN - Da Nang International

CURRENT METAR :
  • 250100Z 18005KT 9999 FEW015 32/25 Q1007 NOSIG

EXPIRED METARs :
  • 250030Z 20004KT 170V240 9999 FEW015 30/25 Q1007 NOSIG
  • 250000Z 23003KT 170V280 9999 FEW015 29/25 Q1007 NOSIG
  • 242330Z 22004KT 180V250 9999 FEW015 28/25 Q1007 NOSIG
  • 242300Z 20003KT 9999 FEW015 27/25 Q1006 NOSIG
  • 242230Z 20002KT 8000 FEW015 SCT060 26/25 Q1006 NOSIG

TAF TAF VVDN
Valid from the 25 at 00:00 until the 26 at 00:00 UTC


242300Z 2500/2524 21004KT 9999 FEW015 SCT060
BECMG 2504/2506 11010KT
TEMPO 2508/2512 4000 TSRA SCT013 FEW015CB SCT060
BECMG 2512/2514 21004KT
VVTS FIR / Asia



MET'MAP, your aeronautical weather chart ! - Copyright ORBIFLY December 2007 - Disclaimer

ORBIFLY MET'MAP TEAM :

Programming & Development : Alexandra Zaïnal
Concept & Development : Baudouin d'Aumeries
Co-Development & Prog : Marc-Olivier Méhu
Technical & hardware support : Manuel Goepfert

Contact : metmap@orbifly.com




SOURCES & CREDITS :

   NOAA       Earth
Advisory